createdAt,value
2022-09-12T13:58:06.703Z,90.40
2022-09-12T14:00:35.064Z,90.70
2022-09-12T14:03:31.549Z,89.90
2022-09-12T14:05:58.287Z,90.30
2022-09-12T14:08:25.283Z,89.80
2022-09-12T14:10:52.143Z,90.80
2022-09-12T14:13:25.292Z,90.20
2022-09-12T14:15:54.588Z,89.50
2022-09-12T14:18:27.995Z,89.80
2022-09-12T14:20:57.422Z,90.40
2022-09-12T14:23:32.186Z,90.40
2022-09-12T14:26:03.362Z,90.60
2022-09-12T14:28:32.084Z,88.80
2022-09-12T14:31:28.386Z,87.90
2022-09-12T14:34:07.732Z,88.00
2022-09-12T14:36:39.394Z,88.40
2022-09-12T14:39:15.508Z,89.90
2022-09-12T14:41:43.051Z,90.20
2022-09-12T14:44:26.052Z,90.70
2022-09-12T14:46:52.822Z,90.00
2022-09-12T14:49:32.451Z,89.60
2022-09-12T14:52:02.486Z,89.40
2022-09-12T14:54:29.169Z,89.80
2022-09-12T14:57:21.280Z,88.90
2022-09-12T14:59:48.110Z,89.30
2022-09-12T15:02:20.583Z,90.40
2022-09-12T15:04:48.766Z,89.20
2022-09-12T15:07:36.230Z,90.70
2022-09-12T15:10:05.764Z,90.10
2022-09-12T15:12:32.768Z,90.70
2022-09-12T15:15:20.676Z,90.50
2022-09-12T15:17:47.623Z,90.50
2022-09-12T15:20:14.740Z,90.70
2022-09-12T15:22:42.552Z,91.60
2022-09-12T15:25:12.125Z,91.30
2022-09-12T15:27:42.288Z,90.90
2022-09-12T15:30:10.275Z,90.80
2022-09-12T15:32:37.496Z,91.10
2022-09-12T15:35:10.131Z,90.80
2022-09-12T15:37:36.768Z,90.50
2022-09-12T15:40:04.637Z,90.80
2022-09-12T15:42:31.610Z,91.70
2022-09-12T15:45:02.630Z,90.20
2022-09-12T15:47:29.645Z,90.10
2022-09-12T15:49:56.507Z,90.00
2022-09-12T15:52:23.132Z,90.30
2022-09-12T15:54:50.071Z,92.00
2022-09-12T15:57:16.772Z,89.20
2022-09-12T15:59:43.384Z,89.20
2022-09-12T16:02:11.591Z,87.20
2022-09-12T16:04:38.227Z,90.10
2022-09-12T16:07:04.893Z,87.60
2022-09-12T16:09:31.619Z,87.40
2022-09-12T16:11:58.288Z,87.70
2022-09-12T16:14:24.910Z,86.80
2022-09-12T16:16:59.186Z,86.60
2022-09-12T16:19:25.893Z,88.50
2022-09-12T16:21:52.783Z,85.80
2022-09-12T16:24:19.451Z,87.20
2022-09-12T16:26:46.355Z,86.20
2022-09-12T16:29:14.433Z,85.80
2022-09-12T16:31:41.188Z,85.80
2022-09-12T16:34:07.879Z,86.20
2022-09-12T16:36:34.707Z,84.80
2022-09-12T16:39:01.517Z,87.70
2022-09-12T16:41:28.244Z,89.80
2022-09-12T16:43:55.058Z,87.80
2022-09-12T16:46:24.507Z,88.10
2022-09-12T16:48:53.768Z,90.00
2022-09-12T16:51:23.695Z,89.00
2022-09-12T16:53:50.791Z,90.80
2022-09-12T16:56:17.668Z,90.70
2022-09-12T16:58:44.973Z,91.80
2022-09-12T17:01:13.407Z,91.80
2022-09-12T17:03:40.537Z,91.10
2022-09-12T17:06:13.644Z,91.90
2022-09-12T17:08:43.032Z,92.30
2022-09-12T17:11:12.306Z,92.50
2022-09-12T17:14:00.520Z,92.30
2022-09-12T17:16:27.292Z,91.80
2022-09-12T17:18:54.931Z,91.70
2022-09-12T17:21:22.551Z,92.10
